Time;durP1;ratioP1;P1;durP2;ratioP2;P2;SDS_P1;SDS_P2;PMS_P1;PMS_P2;Temp;Humidity;BMP_temperature;BMP_pressure;BME280_temperature;BME280_humidity;BME280_pressure;Samples;Min_cycle;Max_cycle;Signal;HPM_P1;HPM_P2
2022/05/04 00:01:44;;;;;;;8.20;6.73;;;16.50;73.80;;;;;;5059759;28;20707;-67
2022/05/04 00:04:12;;;;;;;10.33;7.73;;;16.40;73.70;;;;;;5087122;28;20260;-67
2022/05/04 00:06:39;;;;;;;10.53;7.70;;;16.40;73.80;;;;;;5065941;28;20222;-67
2022/05/04 00:09:06;;;;;;;10.83;7.73;;;16.40;74.00;;;;;;5070726;28;20553;-67
2022/05/04 00:11:33;;;;;;;11.53;8.13;;;16.30;74.00;;;;;;5061874;28;20561;-67
2022/05/04 00:14:00;;;;;;;9.60;7.93;;;16.30;74.10;;;;;;5070720;28;20286;-67
2022/05/04 00:16:27;;;;;;;9.77;7.87;;;16.30;74.20;;;;;;5063999;28;20213;-68
2022/05/04 00:18:54;;;;;;;11.37;9.00;;;16.30;74.30;;;;;;5069610;28;20205;-68
2022/05/04 00:21:21;;;;;;;11.73;8.80;;;16.20;74.40;;;;;;5068335;28;20671;-68
2022/05/04 00:23:48;;;;;;;9.53;8.50;;;16.20;74.60;;;;;;5075341;28;20205;-67
2022/05/04 00:26:15;;;;;;;13.80;9.13;;;16.10;74.70;;;;;;5082437;28;20227;-67
2022/05/04 00:28:43;;;;;;;10.17;7.50;;;16.10;74.80;;;;;;5084059;28;20203;-68
2022/05/04 00:31:10;;;;;;;11.07;8.67;;;16.10;74.90;;;;;;5066423;28;20209;-67
2022/05/04 00:33:37;;;;;;;12.37;9.00;;;16.00;75.20;;;;;;5092888;28;20270;-67
2022/05/04 00:36:04;;;;;;;9.63;8.03;;;16.00;75.40;;;;;;5080906;28;20285;-67
2022/05/04 00:38:31;;;;;;;11.07;8.97;;;16.00;75.50;;;;;;5075875;28;20209;-67
2022/05/04 00:40:58;;;;;;;10.13;9.13;;;15.90;75.50;;;;;;5078749;28;20208;-67
2022/05/04 00:43:26;;;;;;;10.70;9.60;;;15.90;75.70;;;;;;5089557;28;20201;-69
2022/05/04 00:45:53;;;;;;;9.37;8.47;;;15.90;75.80;;;;;;5066853;28;20224;-67
2022/05/04 00:48:20;;;;;;;13.63;10.37;;;15.90;76.00;;;;;;5087890;28;20204;-67
2022/05/04 00:50:49;;;;;;;11.50;9.60;;;15.80;76.00;;;;;;5099401;28;20220;-67
2022/05/04 00:53:20;;;;;;;14.73;9.90;;;15.80;76.00;;;;;;5077482;28;20212;-67
2022/05/04 00:55:49;;;;;;;12.20;9.50;;;15.80;76.10;;;;;;5080202;28;20204;-68
2022/05/04 01:01:04;;;;;;;15.80;10.83;;;15.70;76.40;;;;;;5079788;28;20595;-68
2022/05/04 01:03:31;;;;;;;14.37;10.77;;;15.70;76.50;;;;;;5089644;28;20219;-68
2022/05/04 01:05:58;;;;;;;11.70;10.33;;;15.70;76.70;;;;;;5073597;28;20231;-68
2022/05/04 01:08:25;;;;;;;13.03;10.13;;;15.60;76.70;;;;;;5088949;28;20231;-68
2022/05/04 01:10:52;;;;;;;16.70;11.90;;;15.60;76.70;;;;;;5104737;28;20205;-68
2022/05/04 01:13:21;;;;;;;15.03;11.80;;;15.60;76.80;;;;;;5081155;28;20843;-68
2022/05/04 01:15:49;;;;;;;14.50;11.47;;;15.60;76.80;;;;;;5081743;28;20208;-68
2022/05/04 01:18:16;;;;;;;14.47;11.20;;;15.50;76.80;;;;;;5084397;28;20703;-67
2022/05/04 01:20:44;;;;;;;16.13;12.37;;;15.50;76.80;;;;;;5076664;28;20527;-67
2022/05/04 01:23:11;;;;;;;14.77;12.30;;;15.40;77.00;;;;;;5072418;28;20650;-67
2022/05/04 01:25:38;;;;;;;14.77;12.17;;;15.40;77.10;;;;;;5082013;28;20233;-67
2022/05/04 01:28:06;;;;;;;15.47;11.57;;;15.40;77.20;;;;;;5080419;28;20233;-67
2022/05/04 01:30:34;;;;;;;14.73;12.20;;;15.40;77.30;;;;;;5077531;28;20204;-67
2022/05/04 01:33:02;;;;;;;17.40;13.53;;;15.30;77.40;;;;;;5063414;28;20663;-68
2022/05/04 01:35:29;;;;;;;16.07;11.80;;;15.30;77.50;;;;;;5087013;28;20560;-67
2022/05/04 01:37:56;;;;;;;18.27;12.57;;;15.20;77.70;;;;;;5084521;28;20213;-67
2022/05/04 01:40:23;;;;;;;14.53;12.57;;;15.20;77.80;;;;;;5090463;28;20224;-67
2022/05/04 01:42:51;;;;;;;15.10;12.27;;;15.10;77.90;;;;;;5082045;28;20646;-67
2022/05/04 01:45:18;;;;;;;15.40;12.70;;;15.10;78.00;;;;;;5074880;28;20208;-67
2022/05/04 01:47:48;;;;;;;13.03;11.50;;;15.10;78.20;;;;;;5085464;28;20223;-67
2022/05/04 01:50:17;;;;;;;18.17;11.83;;;15.00;78.40;;;;;;5074923;28;20296;-67
2022/05/04 01:52:44;;;;;;;14.13;12.63;;;15.00;78.50;;;;;;5079203;28;20266;-67
2022/05/04 01:55:12;;;;;;;13.57;12.17;;;15.00;78.60;;;;;;5072515;28;20215;-67
2022/05/04 01:57:39;;;;;;;15.47;11.93;;;15.00;78.60;;;;;;5079976;28;20646;-67
2022/05/04 02:00:08;;;;;;;14.80;12.23;;;14.90;78.70;;;;;;5074798;28;20212;-67
2022/05/04 02:02:42;;;;;;;17.97;12.43;;;14.90;78.80;;;;;;5085310;28;20528;-67
2022/05/04 02:05:09;;;;;;;13.67;11.07;;;14.90;79.00;;;;;;5079879;28;20233;-67
2022/05/04 02:07:37;;;;;;;13.13;11.50;;;14.80;79.10;;;;;;5086995;28;20221;-68
2022/05/04 02:10:05;;;;;;;17.33;11.83;;;14.80;79.30;;;;;;5094197;28;20199;-68
2022/05/04 02:12:34;;;;;;;14.03;11.53;;;14.80;79.40;;;;;;5072337;28;20205;-68
2022/05/04 02:15:03;;;;;;;15.10;10.90;;;14.80;79.40;;;;;;5082016;28;20239;-68
2022/05/04 02:17:31;;;;;;;16.30;11.37;;;14.70;79.40;;;;;;5081651;28;20590;-68
2022/05/04 02:19:58;;;;;;;13.90;11.57;;;14.70;79.40;;;;;;5080630;28;20230;-68
2022/05/04 02:22:25;;;;;;;18.60;11.63;;;14.70;79.50;;;;;;5089487;28;20237;-68
2022/05/04 02:24:53;;;;;;;15.97;12.20;;;14.70;79.70;;;;;;5098343;28;20203;-68
2022/05/04 02:27:20;;;;;;;16.83;11.70;;;14.70;79.80;;;;;;5096575;28;20217;-68
2022/05/04 02:29:48;;;;;;;14.47;11.47;;;14.60;79.80;;;;;;5068838;28;20204;-68
2022/05/04 02:32:15;;;;;;;15.00;11.07;;;14.60;79.90;;;;;;5088255;28;20221;-68
2022/05/04 02:40:14;;;;;;;12.07;9.50;;;14.50;80.30;;;;;;5072898;28;20216;-68
2022/05/04 02:42:42;;;;;;;14.60;10.60;;;14.50;80.30;;;;;;5087633;28;20211;-68
2022/05/04 02:45:10;;;;;;;11.13;9.90;;;14.50;80.40;;;;;;5068220;28;20240;-68
2022/05/04 02:47:39;;;;;;;12.53;11.23;;;14.50;80.50;;;;;;5088128;28;20323;-68
2022/05/04 02:50:13;;;;;;;11.07;9.97;;;14.50;80.60;;;;;;5091607;28;20203;-68
2022/05/04 02:52:40;;;;;;;15.67;11.50;;;14.50;80.50;;;;;;5090598;28;20200;-68
2022/05/04 02:55:07;;;;;;;11.47;10.27;;;14.40;80.40;;;;;;5063672;28;20238;-68
2022/05/04 02:57:34;;;;;;;15.90;9.83;;;14.40;80.60;;;;;;5081045;28;20294;-68
2022/05/04 03:00:02;;;;;;;12.97;10.37;;;14.40;80.80;;;;;;5090222;28;20905;-68
2022/05/04 03:02:29;;;;;;;15.73;10.93;;;14.40;81.10;;;;;;5075527;28;20213;-68
2022/05/04 03:05:07;;;;;;;13.77;10.20;;;14.40;81.10;;;;;;5075451;28;20241;-68
2022/05/04 03:07:34;;;;;;;11.07;9.60;;;14.30;81.00;;;;;;5080181;28;20245;-68
2022/05/04 03:10:03;;;;;;;11.07;9.50;;;14.30;81.10;;;;;;5105375;28;20212;-68
2022/05/04 03:12:30;;;;;;;10.97;9.70;;;14.20;81.30;;;;;;5091698;28;20261;-68
2022/05/04 03:14:57;;;;;;;10.73;9.60;;;14.20;81.30;;;;;;5081741;28;20209;-68
2022/05/04 03:17:25;;;;;;;10.80;9.70;;;14.20;81.40;;;;;;5078134;28;20234;-68
2022/05/04 03:19:52;;;;;;;12.83;9.97;;;14.20;81.60;;;;;;5070529;28;20223;-68
2022/05/04 03:22:20;;;;;;;12.63;9.40;;;14.20;81.70;;;;;;5089438;28;20307;-68
2022/05/04 03:24:47;;;;;;;13.90;9.53;;;14.10;81.80;;;;;;5087748;28;20205;-68
2022/05/04 03:27:14;;;;;;;12.97;9.50;;;14.20;82.00;;;;;;5074585;28;20221;-68
2022/05/04 03:29:41;;;;;;;12.73;9.37;;;14.10;82.10;;;;;;5083944;28;20215;-68
2022/05/04 03:32:09;;;;;;;11.93;9.37;;;14.10;82.30;;;;;;5081917;28;20712;-68
2022/05/04 03:34:36;;;;;;;14.27;9.30;;;14.10;82.50;;;;;;5084730;28;20619;-68
2022/05/04 03:37:04;;;;;;;10.50;8.53;;;14.10;82.60;;;;;;5060910;28;20691;-68
2022/05/04 03:39:31;;;;;;;14.27;9.67;;;14.00;82.70;;;;;;5084878;28;20205;-68
2022/05/04 03:41:59;;;;;;;10.27;8.97;;;14.00;83.30;;;;;;5075032;28;20212;-68
2022/05/04 03:44:26;;;;;;;13.67;9.73;;;14.10;83.00;;;;;;5074631;28;20722;-68
2022/05/04 03:46:53;;;;;;;11.17;9.23;;;14.00;83.00;;;;;;5070988;28;20219;-68
2022/05/04 03:49:23;;;;;;;10.17;9.10;;;14.00;83.00;;;;;;5082544;28;20205;-68
2022/05/04 03:51:51;;;;;;;9.93;8.67;;;14.00;83.10;;;;;;5107971;28;20609;-68
2022/05/04 03:54:19;;;;;;;10.73;8.90;;;14.00;83.20;;;;;;5068858;28;20224;-68
2022/05/04 03:56:46;;;;;;;9.87;8.87;;;14.00;83.30;;;;;;5076169;28;20216;-68
2022/05/04 03:59:14;;;;;;;10.47;9.40;;;14.00;83.30;;;;;;5063939;28;20201;-68
2022/05/04 04:01:41;;;;;;;11.80;8.50;;;14.00;83.30;;;;;;5080720;28;20214;-68
2022/05/04 04:04:08;;;;;;;10.87;8.93;;;13.90;83.30;;;;;;5079889;28;20203;-68
2022/05/04 04:06:35;;;;;;;10.23;9.17;;;13.90;83.30;;;;;;5106951;28;20244;-67
2022/05/04 04:09:03;;;;;;;11.53;8.53;;;13.80;83.30;;;;;;5088756;28;20215;-67
2022/05/04 04:11:31;;;;;;;11.47;9.50;;;13.80;83.30;;;;;;5078996;28;20212;-67
2022/05/04 04:13:59;;;;;;;11.77;9.77;;;13.80;83.50;;;;;;5095949;28;20271;-67
2022/05/04 04:16:26;;;;;;;10.83;8.77;;;13.80;83.60;;;;;;5071375;28;20198;-67
2022/05/04 04:18:54;;;;;;;11.37;9.27;;;13.80;83.80;;;;;;5076386;28;20283;-67
2022/05/04 04:24:07;;;;;;;11.77;8.83;;;13.70;84.00;;;;;;5058455;28;20204;-68
2022/05/04 04:26:37;;;;;;;10.27;9.27;;;13.70;84.20;;;;;;5101672;28;20314;-68
2022/05/04 04:29:05;;;;;;;10.40;9.37;;;13.70;84.40;;;;;;5101408;28;20221;-68
2022/05/04 04:31:32;;;;;;;11.60;8.73;;;13.70;84.50;;;;;;5075054;28;20224;-68
2022/05/04 04:34:03;;;;;;;10.83;9.73;;;13.70;84.50;;;;;;5058895;28;20205;-68
2022/05/04 04:36:36;;;;;;;11.07;8.37;;;13.80;84.70;;;;;;5069662;28;20306;-68
2022/05/04 04:39:04;;;;;;;10.23;8.90;;;13.80;84.70;;;;;;5058190;28;20211;-68
2022/05/04 04:41:31;;;;;;;10.60;8.37;;;13.80;84.70;;;;;;5067569;28;20200;-68
2022/05/04 04:43:58;;;;;;;9.57;8.57;;;13.80;84.70;;;;;;5067402;28;20252;-68
2022/05/04 04:46:25;;;;;;;10.83;8.93;;;13.90;84.70;;;;;;5056746;28;20221;-68
2022/05/04 04:48:53;;;;;;;12.73;8.97;;;13.90;84.50;;;;;;5056953;28;20223;-68
2022/05/04 04:51:20;;;;;;;9.73;8.40;;;14.00;84.50;;;;;;5061645;28;20200;-68
2022/05/04 04:53:47;;;;;;;9.20;8.27;;;14.00;84.30;;;;;;5087543;28;20291;-68
2022/05/04 04:56:15;;;;;;;8.47;7.67;;;14.10;84.30;;;;;;5060707;28;20210;-68
2022/05/04 04:58:42;;;;;;;9.43;8.33;;;14.10;84.30;;;;;;5088251;28;20209;-68
2022/05/04 05:01:09;;;;;;;9.50;7.73;;;14.20;84.30;;;;;;5070034;28;20223;-68
2022/05/04 05:03:36;;;;;;;9.40;8.17;;;14.30;84.50;;;;;;5102140;28;20661;-68
2022/05/04 05:06:03;;;;;;;8.77;7.87;;;14.40;84.70;;;;;;5062064;28;20591;-68
2022/05/04 05:08:30;;;;;;;8.30;7.50;;;14.40;84.70;;;;;;5053544;28;20224;-68
2022/05/04 05:10:58;;;;;;;11.63;8.03;;;14.50;84.60;;;;;;5079690;28;20627;-68
2022/05/04 05:13:25;;;;;;;8.87;8.00;;;14.60;84.50;;;;;;5066988;28;20208;-68
2022/05/04 05:16:07;;;;;;;10.63;8.13;;;14.70;84.40;;;;;;5065341;28;20272;-68
2022/05/04 05:18:36;;;;;;;9.03;7.80;;;14.80;84.20;;;;;;5070479;28;20207;-68
2022/05/04 05:21:04;;;;;;;9.57;8.10;;;15.00;84.10;;;;;;5071113;28;20269;-68
2022/05/04 05:23:31;;;;;;;9.40;7.97;;;15.10;84.00;;;;;;5071917;28;20209;-68
2022/05/04 05:25:58;;;;;;;9.83;8.83;;;15.40;83.70;;;;;;5084488;28;20268;-68
2022/05/04 05:28:25;;;;;;;8.73;7.83;;;15.70;82.50;;;;;;5076038;28;20290;-68
2022/05/04 05:30:53;;;;;;;9.23;7.97;;;16.00;81.10;;;;;;5073655;28;20242;-69
2022/05/04 05:33:20;;;;;;;8.93;8.00;;;16.30;80.10;;;;;;5045739;28;20576;-68
2022/05/04 05:35:47;;;;;;;9.37;8.17;;;16.30;79.50;;;;;;5074348;28;20615;-68
2022/05/04 05:38:14;;;;;;;9.20;8.23;;;16.40;79.40;;;;;;5076145;28;20282;-68
2022/05/04 05:40:42;;;;;;;11.77;8.43;;;16.50;79.50;;;;;;5078525;28;20650;-68
2022/05/04 05:43:09;;;;;;;10.63;8.67;;;16.50;79.40;;;;;;5075443;28;20733;-68
2022/05/04 05:45:36;;;;;;;9.93;8.93;;;16.60;79.20;;;;;;5086253;28;20246;-68
2022/05/04 05:48:04;;;;;;;13.70;9.20;;;16.70;78.90;;;;;;5078952;28;20225;-68
2022/05/04 05:50:33;;;;;;;9.37;8.37;;;16.80;78.50;;;;;;5077926;28;20204;-69
2022/05/04 05:53:02;;;;;;;9.40;8.37;;;16.90;78.10;;;;;;5078616;28;20201;-69
2022/05/04 05:55:30;;;;;;;8.77;7.77;;;17.00;77.70;;;;;;5079578;28;20200;-69
2022/05/04 05:57:59;;;;;;;9.83;8.93;;;17.20;77.40;;;;;;5093956;28;20220;-69
2022/05/04 06:00:26;;;;;;;9.50;8.50;;;17.30;77.00;;;;;;5076933;28;20199;-69
2022/05/04 06:02:54;;;;;;;10.20;8.43;;;17.50;76.90;;;;;;5086617;28;20258;-69
2022/05/04 06:05:21;;;;;;;9.47;8.47;;;17.60;76.50;;;;;;5072522;28;20236;-68
2022/05/04 06:07:51;;;;;;;11.40;9.37;;;17.80;76.40;;;;;;5072368;28;20255;-69
2022/05/04 06:10:18;;;;;;;15.00;9.40;;;17.90;76.20;;;;;;5090119;28;20201;-69
2022/05/04 06:12:46;;;;;;;10.80;9.20;;;18.10;75.90;;;;;;5067455;28;20642;-69
2022/05/04 06:15:14;;;;;;;14.07;8.30;;;18.20;75.90;;;;;;5089846;28;20591;-70
2022/05/04 06:17:42;;;;;;;11.63;8.87;;;18.40;75.80;;;;;;5079936;28;20298;-69
2022/05/04 06:20:09;;;;;;;9.27;8.33;;;18.50;75.30;;;;;;5082901;28;20240;-69
2022/05/04 06:22:37;;;;;;;8.87;8.03;;;18.70;74.60;;;;;;5071879;28;20671;-69
2022/05/04 06:25:04;;;;;;;10.00;8.03;;;18.80;74.20;;;;;;5077957;28;20214;-69
2022/05/04 06:27:32;;;;;;;9.77;8.43;;;18.90;73.40;;;;;;5082961;28;20667;-69
2022/05/04 06:35:31;;;;;;;10.33;9.33;;;19.10;71.80;;;;;;5076439;28;20660;-68
2022/05/04 06:37:58;;;;;;;8.20;7.37;;;19.20;71.40;;;;;;5074076;28;20251;-68
2022/05/04 06:40:25;;;;;;;12.33;8.37;;;19.20;70.60;;;;;;5086752;28;20242;-68
2022/05/04 06:42:52;;;;;;;9.47;8.53;;;19.30;70.30;;;;;;5085827;28;20250;-68
2022/05/04 06:45:20;;;;;;;10.90;7.87;;;19.40;69.70;;;;;;5072351;28;20604;-68
2022/05/04 06:47:47;;;;;;;11.00;8.50;;;19.60;69.40;;;;;;5082691;28;20220;-68
2022/05/04 06:50:14;;;;;;;9.07;8.20;;;19.70;68.00;;;;;;5093439;28;20208;-68
2022/05/04 06:52:41;;;;;;;9.70;8.43;;;19.80;68.10;;;;;;5075825;28;20657;-68
2022/05/04 06:55:09;;;;;;;11.97;8.13;;;19.90;68.20;;;;;;5065123;28;20216;-68
2022/05/04 06:57:36;;;;;;;10.43;7.83;;;20.10;68.20;;;;;;5086669;28;20219;-68
2022/05/04 07:00:07;;;;;;;9.73;8.73;;;20.20;67.80;;;;;;5084468;28;20306;-68
2022/05/04 07:02:35;;;;;;;10.93;8.43;;;20.40;67.10;;;;;;5100159;28;20261;-68
2022/05/04 07:05:03;;;;;;;9.23;8.33;;;20.50;67.30;;;;;;5077575;28;20302;-68
2022/05/04 07:07:31;;;;;;;12.47;8.80;;;20.60;65.50;;;;;;5070082;28;20616;-68
2022/05/04 07:09:58;;;;;;;12.47;9.57;;;20.70;65.40;;;;;;5078054;28;20539;-68
2022/05/04 07:12:26;;;;;;;13.93;9.57;;;20.80;65.60;;;;;;5082080;28;20220;-68
2022/05/04 07:14:56;;;;;;;13.03;10.70;;;21.00;65.80;;;;;;5092215;28;20232;-68
2022/05/04 07:17:23;;;;;;;11.10;10.00;;;21.10;65.80;;;;;;5086624;28;20208;-67
2022/05/04 07:19:51;;;;;;;11.63;9.83;;;21.20;63.30;;;;;;5060944;28;20220;-67
2022/05/04 07:22:21;;;;;;;12.47;10.53;;;21.20;64.40;;;;;;5072331;28;20301;-67
2022/05/04 07:24:48;;;;;;;11.57;10.40;;;21.20;64.30;;;;;;5107142;28;20703;-67
2022/05/04 07:27:15;;;;;;;12.33;11.03;;;21.20;63.20;;;;;;5074883;28;20634;-68
2022/05/04 07:29:44;;;;;;;13.07;11.37;;;21.20;64.00;;;;;;5090741;28;20241;-67
2022/05/04 07:32:12;;;;;;;16.40;13.30;;;21.30;63.70;;;;;;5079543;28;20209;-67
2022/05/04 07:34:40;;;;;;;13.67;12.37;;;21.50;62.60;;;;;;5073982;28;20213;-67
2022/05/04 07:37:07;;;;;;;15.73;13.10;;;21.50;62.00;;;;;;5082279;28;20605;-67
2022/05/04 07:42:21;;;;;;;13.93;12.43;;;21.50;62.80;;;;;;5089054;28;20212;-67
2022/05/04 07:44:50;;;;;;;14.07;12.67;;;21.50;62.20;;;;;;5089477;28;20205;-67
2022/05/04 07:47:27;;;;;;;17.80;13.33;;;21.40;62.30;;;;;;5085960;28;20247;-67
2022/05/04 07:49:55;;;;;;;14.57;13.07;;;21.40;63.40;;;;;;5085449;28;20554;-67
2022/05/04 07:52:23;;;;;;;13.87;12.43;;;21.50;63.60;;;;;;5089456;28;20303;-67
2022/05/04 07:54:50;;;;;;;13.80;12.33;;;21.70;63.80;;;;;;5083451;28;20205;-68
2022/05/04 07:57:19;;;;;;;14.03;12.40;;;22.00;64.20;;;;;;5077899;28;20209;-67
2022/05/04 08:04:16;;;;;;;17.60;12.60;;;22.20;64.00;;;;;;5087863;28;20548;-67
2022/05/04 08:05:23;;;;;;;14.43;12.90;;;22.50;61.40;;;;;;5078433;28;20194;-67
2022/05/04 08:07:51;;;;;;;14.50;12.97;;;22.60;61.00;;;;;;5080249;28;20286;-67
2022/05/04 08:10:18;;;;;;;17.10;12.53;;;22.70;61.00;;;;;;5086001;28;20198;-67
2022/05/04 08:12:45;;;;;;;15.73;11.57;;;22.80;60.60;;;;;;5074212;28;20197;-67
2022/05/04 08:15:12;;;;;;;13.57;12.00;;;22.90;60.50;;;;;;5056451;28;20210;-67
2022/05/04 08:17:39;;;;;;;13.00;11.70;;;23.10;60.60;;;;;;5075047;28;20233;-67
2022/05/04 08:20:07;;;;;;;12.97;11.67;;;23.20;60.70;;;;;;5082447;28;20206;-67
2022/05/04 08:22:34;;;;;;;14.00;12.13;;;23.30;60.40;;;;;;5103371;28;20241;-67
2022/05/04 08:25:01;;;;;;;12.83;11.53;;;23.50;60.40;;;;;;5080360;28;20221;-67
2022/05/04 08:27:31;;;;;;;14.70;13.10;;;23.60;59.60;;;;;;5071059;28;20623;-67
2022/05/04 08:30:02;;;;;;;13.77;12.40;;;23.80;59.30;;;;;;5061215;28;20571;-68
2022/05/04 08:32:30;;;;;;;12.90;11.47;;;23.90;58.70;;;;;;5062495;28;20199;-67
2022/05/04 08:34:59;;;;;;;14.53;13.00;;;23.90;58.40;;;;;;5064429;28;20746;-67
2022/05/04 08:37:29;;;;;;;14.50;13.00;;;23.90;57.90;;;;;;5071606;28;20525;-67
2022/05/04 08:39:57;;;;;;;13.97;12.23;;;23.80;57.10;;;;;;5072192;28;20213;-67
2022/05/04 08:42:24;;;;;;;14.47;12.97;;;23.80;57.50;;;;;;5098602;28;20206;-67
2022/05/04 08:44:55;;;;;;;13.83;12.27;;;23.80;58.40;;;;;;5064815;28;20218;-67
2022/05/04 08:47:28;;;;;;;16.17;12.17;;;23.80;58.20;;;;;;5067417;28;20268;-67
2022/05/04 08:49:56;;;;;;;13.70;12.20;;;23.90;58.30;;;;;;5064693;28;20208;-67
2022/05/04 08:52:23;;;;;;;14.20;12.47;;;24.00;56.50;;;;;;5071268;28;20217;-67
2022/05/04 08:54:51;;;;;;;13.73;12.40;;;24.10;56.30;;;;;;5063486;28;20276;-67
2022/05/04 08:57:18;;;;;;;13.07;11.87;;;24.10;56.70;;;;;;5069691;28;20718;-67
2022/05/04 08:59:46;;;;;;;14.00;12.63;;;24.20;56.50;;;;;;5062279;28;20198;-67
2022/05/04 09:02:13;;;;;;;15.60;12.37;;;24.40;56.70;;;;;;5085498;28;20206;-67
2022/05/04 09:04:42;;;;;;;14.43;13.03;;;24.50;55.60;;;;;;5053133;28;20233;-67
2022/05/04 09:07:39;;;;;;;13.57;12.27;;;24.60;55.30;;;;;;5086455;28;20537;-67
2022/05/04 09:10:07;;;;;;;12.60;11.30;;;24.60;54.90;;;;;;5054316;28;20229;-67
2022/05/04 09:12:36;;;;;;;12.07;10.87;;;24.60;55.10;;;;;;5054506;28;20217;-67
2022/05/04 09:15:03;;;;;;;13.30;12.07;;;24.70;55.00;;;;;;5063356;28;20201;-67
2022/05/04 09:17:30;;;;;;;13.97;12.47;;;24.90;54.20;;;;;;5071044;28;20215;-67
2022/05/04 09:22:50;;;;;;;12.87;11.73;;;25.10;52.90;;;;;;5082654;28;20265;-67
2022/05/04 09:25:19;;;;;;;13.37;10.57;;;25.20;53.40;;;;;;5082263;28;20258;-67
2022/05/04 09:27:48;;;;;;;11.77;10.67;;;25.20;52.40;;;;;;5072508;28;20216;-67
2022/05/04 09:30:16;;;;;;;10.93;9.83;;;25.40;53.30;;;;;;5082097;28;20225;-67
2022/05/04 09:32:44;;;;;;;10.60;9.60;;;25.60;53.00;;;;;;5106302;28;20193;-67
2022/05/04 09:35:15;;;;;;;13.30;10.90;;;25.80;52.90;;;;;;5072830;28;20197;-67
2022/05/04 09:46:08;;;;;;;9.20;8.40;;;26.10;50.50;;;;;;5081112;28;20287;-67
2022/05/04 09:48:36;;;;;;;11.20;10.13;;;26.10;50.20;;;;;;5075272;28;20683;-67
2022/05/04 09:51:09;;;;;;;10.87;9.77;;;26.30;49.20;;;;;;5074156;28;20548;-67
2022/05/04 09:53:36;;;;;;;9.73;8.73;;;26.30;49.30;;;;;;5090672;28;20282;-67
2022/05/04 09:56:04;;;;;;;11.63;9.80;;;26.40;49.20;;;;;;5081311;28;20247;-67
2022/05/04 09:58:31;;;;;;;11.37;9.60;;;26.50;49.50;;;;;;5075098;28;20225;-67
2022/05/04 10:00:59;;;;;;;10.93;9.93;;;26.70;50.00;;;;;;5099598;28;20638;-67
2022/05/04 10:03:27;;;;;;;10.47;9.43;;;26.80;49.20;;;;;;5106467;28;20205;-67
2022/05/04 10:05:55;;;;;;;10.97;10.00;;;26.90;48.90;;;;;;5082462;28;20584;-67
2022/05/04 10:08:23;;;;;;;10.60;8.63;;;27.00;48.40;;;;;;5056887;28;20289;-67
2022/05/04 10:10:54;;;;;;;12.60;10.47;;;27.00;48.40;;;;;;5064209;28;20438;-67
2022/05/04 10:13:22;;;;;;;11.43;9.60;;;27.00;48.90;;;;;;5074902;28;20204;-67
2022/05/04 10:15:53;;;;;;;10.67;9.20;;;27.10;49.10;;;;;;5081675;28;20238;-67
2022/05/04 10:18:32;;;;;;;9.87;8.90;;;27.10;48.80;;;;;;5086177;28;20269;-67
2022/05/04 10:21:13;;;;;;;9.47;8.00;;;27.20;48.00;;;;;;5082091;28;20246;-67
2022/05/04 10:23:53;;;;;;;9.57;8.30;;;27.20;47.60;;;;;;5093012;28;20215;-67
2022/05/04 10:26:37;;;;;;;9.83;8.77;;;27.20;46.50;;;;;;5067460;28;20672;-67
2022/05/04 10:32:37;;;;;;;9.80;8.90;;;27.40;47.20;;;;;;5030603;28;20214;-67
2022/05/04 10:35:27;;;;;;;8.00;7.30;;;27.40;44.50;;;;;;5048086;28;20199;-67
2022/05/04 10:38:04;;;;;;;8.53;6.80;;;27.20;44.80;;;;;;5075305;28;20600;-67
2022/05/04 10:40:45;;;;;;;6.27;5.67;;;27.20;45.70;;;;;;5083929;28;20642;-68
2022/05/04 10:43:33;;;;;;;8.90;5.90;;;27.20;45.70;;;;;;5074969;28;20216;-67
2022/05/04 10:46:13;;;;;;;5.80;5.30;;;27.20;44.20;;;;;;5084865;28;20259;-67
2022/05/04 10:49:05;;;;;;;9.03;6.07;;;27.30;44.30;;;;;;5093220;28;20219;-67
2022/05/04 10:51:37;;;;;;;5.80;4.57;;;27.30;45.00;;;;;;5062239;28;20670;-67
2022/05/04 10:54:08;;;;;;;5.77;4.90;;;27.30;43.20;;;;;;5095698;28;20277;-67
2022/05/04 10:56:49;;;;;;;5.33;4.10;;;27.30;40.70;;;;;;5089465;28;20253;-67
2022/05/04 10:59:48;;;;;;;4.23;3.83;;;27.30;41.30;;;;;;5077135;28;20297;-67
2022/05/04 11:02:17;;;;;;;4.60;3.90;;;27.30;44.50;;;;;;5082222;28;20281;-67
2022/05/04 11:04:52;;;;;;;3.73;3.00;;;27.40;44.90;;;;;;5078354;28;20262;-67
2022/05/04 11:07:28;;;;;;;6.87;5.00;;;27.50;43.10;;;;;;5103485;28;20311;-67
2022/05/04 11:10:00;;;;;;;4.87;4.00;;;27.60;42.00;;;;;;5092859;28;20210;-67
2022/05/04 11:12:27;;;;;;;5.17;4.77;;;27.60;42.90;;;;;;5083124;28;20228;-67
2022/05/04 11:14:54;;;;;;;6.17;4.43;;;27.60;42.00;;;;;;5060117;28;20421;-67
2022/05/04 11:17:23;;;;;;;4.93;3.80;;;27.60;41.20;;;;;;5089681;28;20483;-67
2022/05/04 11:19:52;;;;;;;4.23;3.90;;;27.60;41.40;;;;;;5094987;28;20217;-67
2022/05/04 11:22:20;;;;;;;4.57;4.10;;;27.60;40.70;;;;;;5073924;28;20251;-67
2022/05/04 11:25:09;;;;;;;5.63;3.83;;;27.50;41.50;;;;;;5104712;28;20205;-68
2022/05/04 11:27:36;;;;;;;4.43;3.53;;;27.60;41.20;;;;;;5076814;28;20704;-67
2022/05/04 11:30:05;;;;;;;13.03;4.10;;;27.60;41.70;;;;;;5061909;28;20240;-67
2022/05/04 11:32:33;;;;;;;5.03;3.53;;;27.60;42.70;;;;;;5087408;28;20259;-68
2022/05/04 11:35:02;;;;;;;3.57;3.27;;;27.70;39.90;;;;;;5095782;28;20230;-67
2022/05/04 11:37:33;;;;;;;4.47;3.53;;;27.70;40.10;;;;;;5090921;28;20209;-67
2022/05/04 11:40:14;;;;;;;3.53;3.13;;;27.70;41.10;;;;;;5077619;28;20211;-67
2022/05/04 11:42:43;;;;;;;6.40;4.57;;;27.80;39.30;;;;;;5102698;28;20759;-67
2022/05/04 11:45:11;;;;;;;5.53;4.50;;;27.80;41.20;;;;;;5080141;28;20197;-69
2022/05/04 11:47:38;;;;;;;5.83;4.27;;;27.80;41.40;;;;;;5090389;28;20549;-68
2022/05/04 11:50:06;;;;;;;3.73;3.30;;;27.90;41.10;;;;;;5077141;28;20679;-68
2022/05/04 11:52:33;;;;;;;6.17;4.10;;;27.90;37.80;;;;;;5091735;28;20221;-68
2022/05/04 11:55:02;;;;;;;3.30;3.00;;;28.00;40.20;;;;;;5077342;28;20204;-68
2022/05/04 11:57:40;;;;;;;3.90;3.23;;;27.90;40.20;;;;;;5087544;28;20224;-68
2022/05/04 12:00:17;;;;;;;4.20;3.83;;;27.90;40.40;;;;;;5094385;28;20192;-68
2022/05/04 12:02:45;;;;;;;4.90;3.67;;;27.90;39.20;;;;;;5067532;28;20634;-68
2022/05/04 12:05:13;;;;;;;4.83;2.93;;;27.80;37.30;;;;;;5075908;28;20579;-67
2022/05/04 12:07:40;;;;;;;4.50;3.27;;;27.80;38.50;;;;;;5092682;28;20619;-68
2022/05/04 12:10:09;;;;;;;6.07;3.33;;;27.70;37.40;;;;;;5079332;28;20252;-67
2022/05/04 12:12:37;;;;;;;8.83;3.47;;;27.70;38.40;;;;;;5102362;28;20202;-67
2022/05/04 12:15:06;;;;;;;4.23;3.83;;;27.70;38.60;;;;;;5059489;28;20222;-68
2022/05/04 12:17:36;;;;;;;4.30;3.90;;;27.70;38.90;;;;;;5077218;28;20706;-68
2022/05/04 12:20:07;;;;;;;3.90;3.60;;;27.70;37.70;;;;;;5110212;28;20559;-68
2022/05/04 12:22:35;;;;;;;4.90;3.70;;;27.70;38.10;;;;;;5082029;28;20302;-68
2022/05/04 12:25:05;;;;;;;5.00;3.87;;;27.60;37.00;;;;;;5081277;28;20284;-68
2022/05/04 12:27:38;;;;;;;4.30;3.47;;;27.50;38.20;;;;;;5074639;28;20205;-68
2022/05/04 12:33:13;;;;;;;3.93;3.53;;;27.60;41.20;;;;;;5082353;28;20200;-68
2022/05/04 12:35:45;;;;;;;4.80;4.30;;;27.70;38.80;;;;;;5075800;28;20190;-68
2022/05/04 12:38:16;;;;;;;8.60;3.30;;;27.70;36.00;;;;;;5083115;28;20208;-68
2022/05/04 12:40:43;;;;;;;3.80;3.50;;;27.50;36.20;;;;;;5076198;28;20247;-68
2022/05/04 12:43:16;;;;;;;4.37;3.97;;;27.40;36.70;;;;;;5082988;28;20257;-68
2022/05/04 12:45:44;;;;;;;4.20;3.83;;;27.30;38.20;;;;;;5098429;28;20222;-69
2022/05/04 12:48:11;;;;;;;4.47;4.07;;;27.30;39.20;;;;;;5075407;28;20700;-69
2022/05/04 12:50:39;;;;;;;4.77;4.30;;;27.30;39.20;;;;;;5080477;28;20226;-69
2022/05/04 12:53:06;;;;;;;3.93;3.50;;;27.40;39.20;;;;;;5098162;28;20194;-69
2022/05/04 12:58:19;;;;;;;3.40;3.10;;;27.30;39.80;;;;;;5082790;28;20208;-69
2022/05/04 13:00:46;;;;;;;4.77;3.70;;;27.30;41.10;;;;;;5090922;28;20539;-69
2022/05/04 13:03:13;;;;;;;4.10;3.67;;;27.30;41.90;;;;;;5085560;28;20207;-69
2022/05/04 13:05:45;;;;;;;6.70;3.60;;;27.30;42.20;;;;;;5055426;28;20226;-69
2022/05/04 13:08:12;;;;;;;3.87;3.47;;;27.20;40.70;;;;;;5080199;28;20197;-69
2022/05/04 13:10:39;;;;;;;3.60;3.30;;;27.20;40.90;;;;;;5078482;28;20764;-69
2022/05/04 13:13:06;;;;;;;3.40;3.10;;;27.00;41.40;;;;;;5078320;28;20241;-69
2022/05/04 13:15:33;;;;;;;4.57;3.87;;;27.00;42.80;;;;;;5087197;28;20207;-69
2022/05/04 13:18:03;;;;;;;4.93;3.67;;;26.90;43.80;;;;;;5079274;28;20640;-69
2022/05/04 13:20:31;;;;;;;3.13;2.83;;;26.80;43.00;;;;;;5062163;28;20313;-69
2022/05/04 13:22:58;;;;;;;6.17;3.20;;;26.60;43.10;;;;;;5079848;28;20591;-69
2022/05/04 13:25:26;;;;;;;4.30;3.77;;;26.60;44.10;;;;;;5078905;28;20221;-69
2022/05/04 13:27:53;;;;;;;4.43;3.73;;;26.50;44.40;;;;;;5081909;28;20224;-69
2022/05/04 13:30:21;;;;;;;4.43;4.00;;;26.50;44.80;;;;;;5085050;28;20596;-69